Khabarovsk-Novy Airport
UHHH : now visible

Airfield :











YOU CAN JOIN US ON...

 
LOGIN :

Register | Disclaimer

   EN    FR    IT 

 









Legend :    VFR   Marginal VFR   IFR   Intensive IFR   Very Intensive IFR
Visi :
Ceiling :
>= 8 km
>= 3000ft
5 to 8 km
1000 to 3000 ft
1500m to 5 km
500 to 1000 ft
800 to 1500m
200 to 500 ft
< 800m
< 200 ft
Symbols :   Thunderstorms  Fog  Heavy snow  Heavy precipitations  Wind > 20 kt







- Airport Elevation : 244 ft
- IATA code : KHV


UHHH - Khabarovsk-Novy

CURRENT METAR :
  • 190630Z 14002MPS 050V200 9999 FEW034CB 21/12 Q1001 R23L/090060 NOSIG RMK QFE744/0993

EXPIRED METARs :
  • 190600Z VRB01MPS 9999 FEW040CB 21/13 Q1001 R23L/090060 NOSIG RMK QFE744/0992
  • 190530Z 28003MPS 260V340 9999 SCT040CB 21/13 Q1001 R23L/090060 NOSIG RMK QFE744/0992
  • 190500Z 28006MPS 240V300 9999 SCT040CB 21/12 Q1001 R23L/090060 NOSIG RMK QFE744/0992
  • 190430Z 24004MPS 200V260 9999 SCT040CB 21/11 Q1001 R23L/090060 NOSIG RMK QFE744/0992
  • 190400Z 24005MPS CAVOK 21/12 Q1001 R23L/090060 NOSIG RMK QFE744/0993

TAF TAF UHHH
Valid from the 19 at 06:00 until the 20 at 12:00 UTC


190452Z 1906/2012 21003MPS 9999 SCT030CB
TEMPO 1906/1909 25008MPS 3100 -SHRA SCT010 BKN020CB
FM191200 04003MPS 9999 SCT010 SCT020CB
TEMPO 1912/1918 VRB06MPS 3100 -TSRA SCT006 BKN015CB
UHHH FIR / Asia



MET'MAP, your aeronautical weather chart ! - Copyright ORBIFLY December 2007 - Disclaimer

ORBIFLY MET'MAP TEAM :

Programming & Development : Alexandra Zaïnal
Concept & Development : Baudouin d'Aumeries
Co-Development & Prog : Marc-Olivier Méhu
Technical & hardware support : Manuel Goepfert

Contact : metmap@orbifly.com




SOURCES & CREDITS :

   NOAA       Earth
Advisory